ACA628 CYYZ-CYYG
Flight info
| Callsign | ACA628 |
|---|---|
| Flight time | 1h 38m |
| Altitude | 35000 |
| Route | DEDKI5 OLABA Q951 TALNO Q929 TOXAL DCT DANOL Q951 IKURO |
| Aircraft | B38M/M-SDE1FGHILORVWXY/HB1 |
Departure
| Time | 2026-05-07 17:08 |
|---|---|
| Airport | Toronto Pearson International Airport (CYYZ) |
Arrival
| Time | 2026-05-07 18:46 |
|---|---|
| Airport | Charlottetown Airport (CYYG) |
| Time | Latitude | Longitude | Altitude | Speed | Heading |
|---|---|---|---|---|---|
| 2026-05-07 16:36 | 43.68072 | -79.61611 | 564 ft | 0 kts | 137° |
| 2026-05-07 16:59 | 43.68082 | -79.61625 | 568 ft | 3 kts | 137° |
| 2026-05-07 16:59 | 43.68097 | -79.61644 | 567 ft | 3 kts | 137° |
| 2026-05-07 16:59 | 43.68108 | -79.61655 | 564 ft | 3 kts | 120° |
| 2026-05-07 16:59 | 43.68113 | -79.61674 | 570 ft | 3 kts | 104° |
| 2026-05-07 17:00 | 43.68116 | -79.61701 | 564 ft | 3 kts | 91° |
| 2026-05-07 17:00 | 43.68116 | -79.61724 | 572 ft | 3 kts | 83° |
| 2026-05-07 17:00 | 43.68111 | -79.61749 | 569 ft | 3 kts | 56° |
| 2026-05-07 17:00 | 43.68099 | -79.61770 | 570 ft | 2 kts | 46° |
| 2026-05-07 17:01 | 43.68095 | -79.61774 | 566 ft | 0 kts | 47° |
| 2026-05-07 17:02 | 43.68096 | -79.61774 | 567 ft | 0 kts | 47° |
| 2026-05-07 17:02 | 43.68121 | -79.61745 | 570 ft | 10 kts | 35° |
| 2026-05-07 17:03 | 43.68178 | -79.61786 | 569 ft | 13 kts | 263° |
| 2026-05-07 17:03 | 43.68110 | -79.61889 | 570 ft | 18 kts | 227° |
| 2026-05-07 17:03 | 43.68017 | -79.61988 | 570 ft | 16 kts | 203° |
| 2026-05-07 17:03 | 43.67974 | -79.62098 | 570 ft | 14 kts | 301° |
| 2026-05-07 17:04 | 43.68048 | -79.62203 | 564 ft | 16 kts | 316° |
| 2026-05-07 17:04 | 43.68139 | -79.62322 | 564 ft | 20 kts | 317° |
| 2026-05-07 17:04 | 43.68248 | -79.62455 | 566 ft | 22 kts | 321° |
| 2026-05-07 17:04 | 43.68367 | -79.62605 | 565 ft | 24 kts | 317° |
| 2026-05-07 17:05 | 43.68498 | -79.62775 | 564 ft | 27 kts | 317° |
| 2026-05-07 17:05 | 43.68642 | -79.62962 | 568 ft | 30 kts | 316° |
| 2026-05-07 17:05 | 43.68798 | -79.63165 | 564 ft | 32 kts | 316° |
| 2026-05-07 17:05 | 43.68964 | -79.63383 | 570 ft | 33 kts | 316° |
| 2026-05-07 17:06 | 43.69073 | -79.63523 | 567 ft | 15 kts | 328° |
| 2026-05-07 17:06 | 43.69147 | -79.63492 | 570 ft | 12 kts | 41° |
| 2026-05-07 17:06 | 43.69224 | -79.63430 | 571 ft | 14 kts | 7° |
| 2026-05-07 17:06 | 43.69335 | -79.63424 | 566 ft | 18 kts | 349° |
| 2026-05-07 17:07 | 43.69385 | -79.63552 | 563 ft | 19 kts | 237° |
| 2026-05-07 17:07 | 43.69321 | -79.63645 | 566 ft | 13 kts | 226° |
| 2026-05-07 17:07 | 43.69193 | -79.63829 | 565 ft | 55 kts | 226° |
| 2026-05-07 17:07 | 43.68772 | -79.64440 | 568 ft | 119 kts | 226° |
| 2026-05-07 17:08 | 43.68086 | -79.65442 | 663 ft | 159 kts | 228° |
| 2026-05-07 17:08 | 43.67326 | -79.66624 | 1160 ft | 174 kts | 231° |
| 2026-05-07 17:08 | 43.66548 | -79.67888 | 1996 ft | 168 kts | 239° |
| 2026-05-07 17:08 | 43.65882 | -79.69239 | 2672 ft | 178 kts | 240° |
| 2026-05-07 17:09 | 43.65152 | -79.70744 | 3168 ft | 199 kts | 240° |
| 2026-05-07 17:09 | 43.64323 | -79.72441 | 3580 ft | 228 kts | 238° |
| 2026-05-07 17:09 | 43.63111 | -79.73906 | 4431 ft | 236 kts | 207° |
| 2026-05-07 17:09 | 43.61412 | -79.74246 | 5085 ft | 264 kts | 175° |
| 2026-05-07 17:10 | 43.59700 | -79.73184 | 5893 ft | 277 kts | 143° |
| 2026-05-07 17:10 | 43.58411 | -79.71193 | 6914 ft | 280 kts | 135° |
| 2026-05-07 17:10 | 43.57087 | -79.69180 | 7745 ft | 286 kts | 136° |
| 2026-05-07 17:10 | 43.55738 | -79.67133 | 8654 ft | 290 kts | 136° |
| 2026-05-07 17:11 | 43.54368 | -79.65045 | 9489 ft | 296 kts | 137° |
| 2026-05-07 17:11 | 43.52978 | -79.62927 | 10319 ft | 301 kts | 136° |
| 2026-05-07 17:11 | 43.51615 | -79.60624 | 10742 ft | 323 kts | 123° |
| 2026-05-07 17:11 | 43.50872 | -79.57631 | 11274 ft | 340 kts | 97° |
| 2026-05-07 17:12 | 43.51037 | -79.54404 | 11891 ft | 349 kts | 74° |
| 2026-05-07 17:12 | 43.51694 | -79.51144 | 12540 ft | 357 kts | 73° |
| 2026-05-07 17:12 | 43.52342 | -79.47826 | 13316 ft | 362 kts | 73° |
| 2026-05-07 17:12 | 43.52997 | -79.44440 | 14021 ft | 368 kts | 73° |
| 2026-05-07 17:13 | 43.53732 | -79.41043 | 14711 ft | 373 kts | 70° |
| 2026-05-07 17:13 | 43.54516 | -79.37609 | 15419 ft | 377 kts | 70° |
| 2026-05-07 17:13 | 43.55298 | -79.34135 | 16091 ft | 383 kts | 70° |
| 2026-05-07 17:13 | 43.56089 | -79.30601 | 16752 ft | 388 kts | 71° |
| 2026-05-07 17:14 | 43.56889 | -79.27018 | 17400 ft | 394 kts | 71° |
| 2026-05-07 17:14 | 43.57697 | -79.23388 | 18060 ft | 399 kts | 71° |
| 2026-05-07 17:14 | 43.58516 | -79.19704 | 18631 ft | 404 kts | 71° |
| 2026-05-07 17:14 | 43.59340 | -79.15988 | 19199 ft | 408 kts | 71° |
| 2026-05-07 17:15 | 43.60172 | -79.12228 | 19742 ft | 411 kts | 71° |
| 2026-05-07 17:15 | 43.61010 | -79.08439 | 20308 ft | 415 kts | 71° |
| 2026-05-07 17:15 | 43.61855 | -79.04610 | 20843 ft | 419 kts | 71° |
| 2026-05-07 17:15 | 43.62709 | -79.00732 | 21308 ft | 425 kts | 72° |
| 2026-05-07 17:16 | 43.63571 | -78.96812 | 21852 ft | 428 kts | 72° |
| 2026-05-07 17:16 | 43.64439 | -78.92860 | 22365 ft | 432 kts | 72° |
| 2026-05-07 17:16 | 43.65312 | -78.88871 | 22877 ft | 436 kts | 72° |
| 2026-05-07 17:16 | 43.66193 | -78.84843 | 23383 ft | 440 kts | 72° |
| 2026-05-07 17:17 | 43.67079 | -78.80782 | 23814 ft | 444 kts | 72° |
| 2026-05-07 17:17 | 43.67974 | -78.76682 | 24223 ft | 447 kts | 72° |
| 2026-05-07 17:17 | 43.68881 | -78.72562 | 24647 ft | 450 kts | 69° |
| 2026-05-07 17:17 | 43.70058 | -78.68540 | 24996 ft | 453 kts | 65° |
| 2026-05-07 17:18 | 43.71293 | -78.64505 | 25292 ft | 459 kts | 65° |
| 2026-05-07 17:18 | 43.72550 | -78.60417 | 25648 ft | 463 kts | 65° |
| 2026-05-07 17:18 | 43.73815 | -78.56299 | 25994 ft | 468 kts | 65° |
| 2026-05-07 17:18 | 43.75090 | -78.52144 | 26342 ft | 471 kts | 65° |
| 2026-05-07 17:19 | 43.76375 | -78.47951 | 26697 ft | 475 kts | 65° |
| 2026-05-07 17:19 | 43.77670 | -78.43719 | 27037 ft | 479 kts | 65° |
| 2026-05-07 17:19 | 43.78972 | -78.39455 | 27379 ft | 483 kts | 65° |
| 2026-05-07 17:19 | 43.80284 | -78.35152 | 27702 ft | 487 kts | 65° |
| 2026-05-07 17:20 | 43.81604 | -78.30815 | 28031 ft | 491 kts | 65° |
| 2026-05-07 17:20 | 43.82931 | -78.26449 | 28463 ft | 492 kts | 65° |
| 2026-05-07 17:20 | 43.84257 | -78.22080 | 28903 ft | 493 kts | 65° |
| 2026-05-07 17:20 | 43.85590 | -78.17680 | 29170 ft | 498 kts | 65° |
| 2026-05-07 17:21 | 43.86932 | -78.13241 | 29487 ft | 501 kts | 65° |
| 2026-05-07 17:21 | 43.88282 | -78.08770 | 29784 ft | 504 kts | 65° |
| 2026-05-07 17:21 | 43.89637 | -78.04271 | 30069 ft | 507 kts | 65° |
| 2026-05-07 17:21 | 43.90998 | -77.99746 | 30318 ft | 510 kts | 65° |
| 2026-05-07 17:22 | 43.92363 | -77.95199 | 30596 ft | 511 kts | 65° |
| 2026-05-07 17:22 | 43.93733 | -77.90627 | 30809 ft | 515 kts | 65° |
| 2026-05-07 17:22 | 43.95109 | -77.86030 | 31082 ft | 517 kts | 65° |
| 2026-05-07 17:22 | 43.96488 | -77.81414 | 31376 ft | 519 kts | 65° |
| 2026-05-07 17:23 | 43.97868 | -77.76784 | 31701 ft | 518 kts | 66° |
| 2026-05-07 17:23 | 43.99245 | -77.72155 | 31990 ft | 520 kts | 66° |
| 2026-05-07 17:23 | 44.00608 | -77.67566 | 32228 ft | 522 kts | 66° |
| 2026-05-07 17:23 | 44.01992 | -77.62899 | 32490 ft | 523 kts | 66° |
| 2026-05-07 17:24 | 44.03378 | -77.58214 | 32730 ft | 525 kts | 66° |
| 2026-05-07 17:24 | 44.04771 | -77.53501 | 32937 ft | 528 kts | 66° |
| 2026-05-07 17:24 | 44.06167 | -77.48771 | 33196 ft | 529 kts | 66° |
| 2026-05-07 17:24 | 44.07581 | -77.44043 | 33457 ft | 530 kts | 63° |
| 2026-05-07 17:25 | 44.09146 | -77.39389 | 33700 ft | 532 kts | 63° |
| 2026-05-07 17:25 | 44.10703 | -77.34723 | 34006 ft | 531 kts | 64° |
| 2026-05-07 17:25 | 44.12243 | -77.30055 | 34289 ft | 531 kts | 64° |
| 2026-05-07 17:25 | 44.13779 | -77.25389 | 34564 ft | 530 kts | 64° |
| 2026-05-07 17:26 | 44.15310 | -77.20726 | 34816 ft | 530 kts | 64° |
| 2026-05-07 17:26 | 44.16842 | -77.16055 | 34941 ft | 531 kts | 64° |
| 2026-05-07 17:26 | 44.19904 | -77.06692 | 34937 ft | 529 kts | 64° |
| 2026-05-07 17:27 | 44.22949 | -76.97348 | 34940 ft | 530 kts | 64° |
| 2026-05-07 17:27 | 44.25986 | -76.87993 | 34942 ft | 528 kts | 64° |
| 2026-05-07 17:28 | 44.28496 | -76.80239 | 34925 ft | 528 kts | 64° |
| 2026-05-07 17:28 | 44.31521 | -76.70863 | 34934 ft | 530 kts | 64° |
| 2026-05-07 17:29 | 44.34538 | -76.61477 | 34933 ft | 530 kts | 64° |
| 2026-05-07 17:29 | 44.37548 | -76.52079 | 34925 ft | 530 kts | 65° |
| 2026-05-07 17:30 | 44.40550 | -76.42674 | 34934 ft | 528 kts | 65° |
| 2026-05-07 17:30 | 44.43529 | -76.33305 | 34919 ft | 529 kts | 65° |
| 2026-05-07 17:31 | 44.46518 | -76.23882 | 34916 ft | 529 kts | 65° |
| 2026-05-07 17:31 | 44.49489 | -76.14457 | 34903 ft | 529 kts | 65° |
| 2026-05-07 17:32 | 44.52458 | -76.05015 | 34904 ft | 529 kts | 65° |
| 2026-05-07 17:32 | 44.55411 | -75.95587 | 34892 ft | 527 kts | 65° |
| 2026-05-07 17:33 | 44.58357 | -75.86151 | 34887 ft | 530 kts | 65° |
| 2026-05-07 17:33 | 44.61308 | -75.76662 | 34880 ft | 530 kts | 65° |
| 2026-05-07 17:34 | 44.64248 | -75.67168 | 34876 ft | 530 kts | 66° |
| 2026-05-07 17:34 | 44.66952 | -75.57525 | 34912 ft | 530 kts | 68° |
| 2026-05-07 17:35 | 44.69581 | -75.47900 | 34842 ft | 526 kts | 69° |
| 2026-05-07 17:35 | 44.72217 | -75.38256 | 34867 ft | 530 kts | 67° |
| 2026-05-07 17:36 | 44.75056 | -75.28685 | 34875 ft | 530 kts | 67° |
| 2026-05-07 17:36 | 44.77864 | -75.19099 | 34880 ft | 530 kts | 67° |
| 2026-05-07 17:37 | 44.80643 | -75.09572 | 34906 ft | 529 kts | 67° |
| 2026-05-07 17:37 | 44.83423 | -75.00004 | 34864 ft | 528 kts | 67° |
| 2026-05-07 17:38 | 44.86208 | -74.90387 | 34890 ft | 531 kts | 67° |
| 2026-05-07 17:38 | 44.88985 | -74.80755 | 34886 ft | 530 kts | 68° |
| 2026-05-07 17:39 | 44.91655 | -74.71055 | 34883 ft | 530 kts | 73° |
| 2026-05-07 17:39 | 44.93859 | -74.61133 | 34912 ft | 529 kts | 73° |
| 2026-05-07 17:40 | 44.96013 | -74.51237 | 34852 ft | 528 kts | 73° |
| 2026-05-07 17:40 | 44.98170 | -74.41272 | 34861 ft | 531 kts | 73° |
| 2026-05-07 17:41 | 45.00148 | -74.31221 | 34865 ft | 531 kts | 76° |
| 2026-05-07 17:41 | 45.02034 | -74.21143 | 34854 ft | 531 kts | 76° |
| 2026-05-07 17:42 | 45.03922 | -74.11057 | 34848 ft | 531 kts | 76° |
| 2026-05-07 17:42 | 45.05799 | -74.00982 | 34865 ft | 527 kts | 76° |
| 2026-05-07 17:43 | 45.07596 | -73.90954 | 34834 ft | 525 kts | 83° |
| 2026-05-07 17:43 | 45.08084 | -73.80708 | 34818 ft | 523 kts | 89° |
| 2026-05-07 17:44 | 45.08505 | -73.70446 | 34840 ft | 523 kts | 89° |
| 2026-05-07 17:44 | 45.08903 | -73.60145 | 34836 ft | 526 kts | 90° |
| 2026-05-07 17:45 | 45.09267 | -73.49798 | 34838 ft | 526 kts | 90° |
| 2026-05-07 17:45 | 45.09617 | -73.39521 | 34842 ft | 526 kts | 90° |
| 2026-05-07 17:46 | 45.09961 | -73.29177 | 34839 ft | 526 kts | 90° |
| 2026-05-07 17:46 | 45.10295 | -73.18812 | 34840 ft | 529 kts | 90° |
| 2026-05-07 17:47 | 45.10622 | -73.08403 | 34866 ft | 528 kts | 90° |
| 2026-05-07 17:47 | 45.10937 | -72.98071 | 34843 ft | 524 kts | 90° |
| 2026-05-07 17:48 | 45.11241 | -72.87770 | 34842 ft | 524 kts | 91° |
| 2026-05-07 17:48 | 45.11537 | -72.77456 | 34839 ft | 526 kts | 91° |
| 2026-05-07 17:49 | 45.11824 | -72.67113 | 34828 ft | 525 kts | 91° |
| 2026-05-07 17:49 | 45.12101 | -72.56775 | 34840 ft | 526 kts | 91° |
| 2026-05-07 17:50 | 45.12370 | -72.46437 | 34813 ft | 525 kts | 91° |
| 2026-05-07 17:50 | 45.12629 | -72.36065 | 34817 ft | 529 kts | 91° |
| 2026-05-07 17:51 | 45.12881 | -72.25647 | 34824 ft | 529 kts | 91° |
| 2026-05-07 17:51 | 45.13122 | -72.15243 | 34821 ft | 529 kts | 91° |
| 2026-05-07 17:52 | 45.13354 | -72.04836 | 34776 ft | 529 kts | 92° |
| 2026-05-07 17:52 | 45.13577 | -71.94412 | 34829 ft | 528 kts | 92° |
| 2026-05-07 17:53 | 45.13790 | -71.84051 | 34805 ft | 526 kts | 92° |
| 2026-05-07 17:53 | 45.13994 | -71.73703 | 34816 ft | 526 kts | 92° |
| 2026-05-07 17:54 | 45.14190 | -71.63347 | 34770 ft | 526 kts | 92° |
| 2026-05-07 17:54 | 45.15155 | -71.53038 | 34816 ft | 533 kts | 78° |
| 2026-05-07 17:55 | 45.16813 | -71.42784 | 34801 ft | 533 kts | 79° |
| 2026-05-07 17:55 | 45.18478 | -71.32537 | 34789 ft | 534 kts | 79° |
| 2026-05-07 17:56 | 45.20136 | -71.22281 | 34790 ft | 533 kts | 79° |
| 2026-05-07 17:56 | 45.21788 | -71.12011 | 34792 ft | 536 kts | 79° |
| 2026-05-07 17:57 | 45.23158 | -71.03439 | 34776 ft | 536 kts | 79° |
| 2026-05-07 17:57 | 45.25072 | -70.91390 | 34770 ft | 536 kts | 79° |
| 2026-05-07 17:58 | 45.26701 | -70.81065 | 34760 ft | 536 kts | 79° |
| 2026-05-07 17:58 | 45.28320 | -70.70742 | 34730 ft | 536 kts | 79° |
| 2026-05-07 17:59 | 45.29936 | -70.60372 | 34778 ft | 539 kts | 79° |
| 2026-05-07 17:59 | 45.31541 | -70.50001 | 34746 ft | 536 kts | 79° |
| 2026-05-07 18:00 | 45.33133 | -70.39650 | 34750 ft | 537 kts | 80° |
| 2026-05-07 18:00 | 45.34718 | -70.29280 | 34738 ft | 537 kts | 79° |
| 2026-05-07 18:01 | 45.36291 | -70.18917 | 34733 ft | 536 kts | 80° |
| 2026-05-07 18:01 | 45.37856 | -70.08545 | 34732 ft | 536 kts | 80° |
| 2026-05-07 18:02 | 45.40173 | -69.93057 | 34749 ft | 535 kts | 80° |
| 2026-05-07 18:03 | 45.41709 | -69.82711 | 34740 ft | 534 kts | 80° |
| 2026-05-07 18:03 | 45.43235 | -69.72362 | 34731 ft | 534 kts | 80° |
| 2026-05-07 18:04 | 45.44751 | -69.62007 | 34729 ft | 534 kts | 81° |
| 2026-05-07 18:04 | 45.46258 | -69.51647 | 34729 ft | 534 kts | 81° |
| 2026-05-07 18:05 | 45.47755 | -69.41280 | 34729 ft | 534 kts | 81° |
| 2026-05-07 18:05 | 45.49242 | -69.30916 | 34722 ft | 533 kts | 81° |
| 2026-05-07 18:06 | 45.50714 | -69.20592 | 34729 ft | 531 kts | 81° |
| 2026-05-07 18:06 | 45.52174 | -69.10275 | 34728 ft | 531 kts | 81° |
| 2026-05-07 18:07 | 45.53626 | -68.99944 | 34728 ft | 531 kts | 81° |
| 2026-05-07 18:07 | 45.55068 | -68.89613 | 34716 ft | 531 kts | 81° |
| 2026-05-07 18:08 | 45.56502 | -68.79268 | 34712 ft | 532 kts | 82° |
| 2026-05-07 18:08 | 45.57926 | -68.68921 | 34733 ft | 530 kts | 82° |
| 2026-05-07 18:09 | 45.59331 | -68.58638 | 34708 ft | 527 kts | 82° |
| 2026-05-07 18:09 | 45.60716 | -68.48433 | 34718 ft | 527 kts | 82° |
| 2026-05-07 18:10 | 45.62101 | -68.38153 | 34683 ft | 528 kts | 82° |
| 2026-05-07 18:10 | 45.63486 | -68.27804 | 34724 ft | 531 kts | 82° |
| 2026-05-07 18:11 | 45.64862 | -68.17441 | 34717 ft | 530 kts | 82° |
| 2026-05-07 18:11 | 45.66231 | -68.07083 | 34740 ft | 530 kts | 82° |
| 2026-05-07 18:12 | 45.67358 | -67.98502 | 34708 ft | 527 kts | 82° |
| 2026-05-07 18:12 | 45.68703 | -67.88189 | 34691 ft | 530 kts | 83° |
| 2026-05-07 18:13 | 45.70212 | -67.77847 | 34706 ft | 532 kts | 78° |
| 2026-05-07 18:13 | 45.72102 | -67.67599 | 34691 ft | 532 kts | 77° |
| 2026-05-07 18:14 | 45.74008 | -67.57373 | 34691 ft | 532 kts | 77° |
| 2026-05-07 18:14 | 45.75909 | -67.47134 | 34708 ft | 531 kts | 77° |
| 2026-05-07 18:15 | 45.77790 | -67.36940 | 34693 ft | 531 kts | 78° |
| 2026-05-07 18:15 | 45.79674 | -67.26678 | 34694 ft | 532 kts | 78° |
| 2026-05-07 18:16 | 45.81546 | -67.16428 | 34695 ft | 532 kts | 78° |
| 2026-05-07 18:16 | 45.83408 | -67.06168 | 34688 ft | 532 kts | 78° |
| 2026-05-07 18:17 | 45.85263 | -66.95894 | 34711 ft | 532 kts | 78° |
| 2026-05-07 18:17 | 45.87101 | -66.85655 | 34689 ft | 530 kts | 78° |
| 2026-05-07 18:18 | 45.88932 | -66.75396 | 34690 ft | 530 kts | 78° |
| 2026-05-07 18:18 | 45.90753 | -66.65141 | 34689 ft | 530 kts | 78° |
| 2026-05-07 18:19 | 45.92565 | -66.54875 | 34677 ft | 530 kts | 79° |
| 2026-05-07 18:19 | 45.94334 | -66.44664 | 34670 ft | 529 kts | 82° |
| 2026-05-07 18:20 | 45.95754 | -66.34305 | 34705 ft | 527 kts | 82° |
| 2026-05-07 18:20 | 45.97197 | -66.24011 | 34674 ft | 525 kts | 82° |
| 2026-05-07 18:21 | 45.98619 | -66.13714 | 34673 ft | 525 kts | 83° |
| 2026-05-07 18:21 | 46.00008 | -66.03398 | 34668 ft | 525 kts | 83° |
| 2026-05-07 18:22 | 46.01369 | -65.93231 | 34626 ft | 508 kts | 83° |
| 2026-05-07 18:22 | 46.02691 | -65.83296 | 34677 ft | 505 kts | 83° |
| 2026-05-07 18:22 | 46.03348 | -65.78330 | 34545 ft | 503 kts | 84° |
| 2026-05-07 18:23 | 46.04003 | -65.73356 | 33716 ft | 510 kts | 84° |
| 2026-05-07 18:23 | 46.04668 | -65.68298 | 32744 ft | 516 kts | 84° |
| 2026-05-07 18:23 | 46.05329 | -65.63254 | 32106 ft | 506 kts | 84° |
| 2026-05-07 18:23 | 46.05967 | -65.58366 | 31859 ft | 488 kts | 84° |
| 2026-05-07 18:24 | 46.06581 | -65.53643 | 31580 ft | 472 kts | 84° |
| 2026-05-07 18:24 | 46.07175 | -65.49049 | 31135 ft | 462 kts | 84° |
| 2026-05-07 18:24 | 46.07759 | -65.44529 | 30525 ft | 456 kts | 84° |
| 2026-05-07 18:24 | 46.08332 | -65.40074 | 30022 ft | 449 kts | 84° |
| 2026-05-07 18:25 | 46.08894 | -65.35694 | 29599 ft | 439 kts | 85° |
| 2026-05-07 18:25 | 46.09443 | -65.31397 | 29103 ft | 437 kts | 85° |
| 2026-05-07 18:25 | 46.09995 | -65.27065 | 28642 ft | 442 kts | 85° |
| 2026-05-07 18:25 | 46.10550 | -65.22699 | 28211 ft | 443 kts | 85° |
| 2026-05-07 18:26 | 46.11103 | -65.18341 | 27756 ft | 440 kts | 85° |
| 2026-05-07 18:26 | 46.11612 | -65.14018 | 27271 ft | 436 kts | 87° |
| 2026-05-07 18:26 | 46.12096 | -65.09736 | 26833 ft | 431 kts | 87° |
| 2026-05-07 18:26 | 46.12580 | -65.05481 | 26450 ft | 429 kts | 87° |
| 2026-05-07 18:27 | 46.13062 | -65.01248 | 26004 ft | 428 kts | 87° |
| 2026-05-07 18:27 | 46.13541 | -64.97020 | 25571 ft | 427 kts | 87° |
| 2026-05-07 18:27 | 46.14018 | -64.92804 | 25148 ft | 426 kts | 87° |
| 2026-05-07 18:27 | 46.14493 | -64.88593 | 24732 ft | 424 kts | 88° |
| 2026-05-07 18:28 | 46.14965 | -64.84398 | 24316 ft | 424 kts | 88° |
| 2026-05-07 18:28 | 46.15435 | -64.80201 | 23873 ft | 424 kts | 88° |
| 2026-05-07 18:28 | 46.15903 | -64.76007 | 23457 ft | 423 kts | 88° |
| 2026-05-07 18:28 | 46.16367 | -64.71831 | 23001 ft | 422 kts | 88° |
| 2026-05-07 18:29 | 46.16830 | -64.67661 | 22511 ft | 420 kts | 88° |
| 2026-05-07 18:29 | 46.17283 | -64.63569 | 22087 ft | 417 kts | 88° |
| 2026-05-07 18:29 | 46.17711 | -64.59386 | 21610 ft | 414 kts | 90° |
| 2026-05-07 18:29 | 46.18057 | -64.55298 | 21036 ft | 418 kts | 90° |
| 2026-05-07 18:30 | 46.18418 | -64.51136 | 20570 ft | 418 kts | 89° |
| 2026-05-07 18:30 | 46.18777 | -64.47024 | 20132 ft | 408 kts | 91° |
| 2026-05-07 18:30 | 46.19130 | -64.43007 | 19761 ft | 400 kts | 91° |
| 2026-05-07 18:30 | 46.19471 | -64.39073 | 19369 ft | 390 kts | 91° |
| 2026-05-07 18:31 | 46.19802 | -64.35239 | 19002 ft | 380 kts | 91° |
| 2026-05-07 18:31 | 46.20123 | -64.31503 | 18621 ft | 371 kts | 92° |
| 2026-05-07 18:31 | 46.20442 | -64.27789 | 18246 ft | 363 kts | 92° |
| 2026-05-07 18:31 | 46.20745 | -64.24235 | 17865 ft | 363 kts | 92° |
| 2026-05-07 18:32 | 46.21056 | -64.20582 | 17425 ft | 369 kts | 91° |
| 2026-05-07 18:32 | 46.21371 | -64.16886 | 17026 ft | 372 kts | 91° |
| 2026-05-07 18:32 | 46.21684 | -64.13189 | 16644 ft | 371 kts | 91° |
| 2026-05-07 18:32 | 46.21995 | -64.09495 | 16265 ft | 370 kts | 90° |
| 2026-05-07 18:33 | 46.22303 | -64.05825 | 15898 ft | 367 kts | 90° |
| 2026-05-07 18:33 | 46.22608 | -64.02168 | 15737 ft | 367 kts | 90° |
| 2026-05-07 18:33 | 46.22912 | -63.98515 | 15390 ft | 366 kts | 90° |
| 2026-05-07 18:33 | 46.23215 | -63.94865 | 15056 ft | 366 kts | 90° |
| 2026-05-07 18:34 | 46.23515 | -63.91231 | 14701 ft | 364 kts | 90° |
| 2026-05-07 18:34 | 46.23814 | -63.87608 | 14328 ft | 362 kts | 89° |
| 2026-05-07 18:34 | 46.24109 | -63.83999 | 13962 ft | 363 kts | 89° |
| 2026-05-07 18:34 | 46.24406 | -63.80365 | 13561 ft | 365 kts | 89° |
| 2026-05-07 18:35 | 46.24702 | -63.76714 | 13108 ft | 367 kts | 89° |
| 2026-05-07 18:35 | 46.24999 | -63.73045 | 12693 ft | 367 kts | 88° |
| 2026-05-07 18:35 | 46.25294 | -63.69381 | 12284 ft | 367 kts | 88° |
| 2026-05-07 18:35 | 46.25588 | -63.65729 | 11895 ft | 365 kts | 88° |
| 2026-05-07 18:36 | 46.25879 | -63.62086 | 11507 ft | 364 kts | 88° |
| 2026-05-07 18:36 | 46.26168 | -63.58458 | 11116 ft | 363 kts | 88° |
| 2026-05-07 18:36 | 46.26454 | -63.54845 | 10728 ft | 361 kts | 88° |
| 2026-05-07 18:36 | 46.27044 | -63.51291 | 10198 ft | 371 kts | 67° |
| 2026-05-07 18:37 | 46.28580 | -63.48254 | 9564 ft | 380 kts | 45° |
| 2026-05-07 18:37 | 46.30379 | -63.45528 | 9056 ft | 368 kts | 48° |
| 2026-05-07 18:37 | 46.31997 | -63.42741 | 8553 ft | 356 kts | 58° |
| 2026-05-07 18:37 | 46.32994 | -63.39615 | 8045 ft | 341 kts | 83° |
| 2026-05-07 18:38 | 46.32951 | -63.36335 | 7529 ft | 317 kts | 113° |
| 2026-05-07 18:38 | 46.31951 | -63.33664 | 7051 ft | 292 kts | 138° |
| 2026-05-07 18:38 | 46.30675 | -63.31500 | 6879 ft | 281 kts | 129° |
| 2026-05-07 18:38 | 46.29989 | -63.28852 | 6726 ft | 286 kts | 105° |
| 2026-05-07 18:39 | 46.29699 | -63.26053 | 6591 ft | 272 kts | 108° |
| 2026-05-07 18:39 | 46.29320 | -63.23446 | 6372 ft | 260 kts | 109° |
| 2026-05-07 18:39 | 46.28954 | -63.20927 | 6083 ft | 254 kts | 109° |
| 2026-05-07 18:39 | 46.28596 | -63.18443 | 5764 ft | 251 kts | 109° |
| 2026-05-07 18:40 | 46.28248 | -63.15991 | 5474 ft | 248 kts | 108° |
| 2026-05-07 18:40 | 46.27900 | -63.13551 | 5375 ft | 247 kts | 108° |
| 2026-05-07 18:40 | 46.27554 | -63.11117 | 5278 ft | 248 kts | 109° |
| 2026-05-07 18:40 | 46.27209 | -63.08669 | 5164 ft | 248 kts | 108° |
| 2026-05-07 18:41 | 46.26867 | -63.06255 | 5019 ft | 244 kts | 107° |
| 2026-05-07 18:41 | 46.26950 | -63.03772 | 4771 ft | 256 kts | 75° |
| 2026-05-07 18:41 | 46.27887 | -63.01594 | 4489 ft | 259 kts | 42° |
| 2026-05-07 18:41 | 46.29415 | -63.00356 | 4207 ft | 248 kts | 10° |
| 2026-05-07 18:42 | 46.31065 | -62.99903 | 4016 ft | 237 kts | 4° |
| 2026-05-07 18:42 | 46.32676 | -62.99510 | 3689 ft | 234 kts | 5° |
| 2026-05-07 18:42 | 46.34261 | -62.99254 | 3540 ft | 227 kts | 355° |
| 2026-05-07 18:42 | 46.35748 | -62.99680 | 3258 ft | 211 kts | 325° |
| 2026-05-07 18:43 | 46.36915 | -63.00895 | 3005 ft | 202 kts | 314° |
| 2026-05-07 18:43 | 46.37822 | -63.02343 | 2689 ft | 188 kts | 297° |
| 2026-05-07 18:43 | 46.38313 | -63.04004 | 2390 ft | 174 kts | 278° |
| 2026-05-07 18:43 | 46.38398 | -63.05700 | 2209 ft | 169 kts | 262° |
| 2026-05-07 18:44 | 46.38142 | -63.07353 | 2168 ft | 168 kts | 248° |
| 2026-05-07 18:44 | 46.37590 | -63.08826 | 1983 ft | 163 kts | 234° |
| 2026-05-07 18:44 | 46.36838 | -63.09967 | 1673 ft | 151 kts | 219° |
| 2026-05-07 18:44 | 46.35967 | -63.10734 | 1405 ft | 143 kts | 208° |
| 2026-05-07 18:45 | 46.35009 | -63.11178 | 1234 ft | 147 kts | 195° |
| 2026-05-07 18:45 | 46.33993 | -63.11387 | 1078 ft | 147 kts | 192° |
| 2026-05-07 18:45 | 46.32989 | -63.11601 | 871 ft | 144 kts | 192° |
| 2026-05-07 18:45 | 46.32001 | -63.11841 | 634 ft | 143 kts | 188° |
| 2026-05-07 18:46 | 46.31026 | -63.12054 | 434 ft | 139 kts | 188° |
| 2026-05-07 18:46 | 46.30090 | -63.12261 | 237 ft | 132 kts | 189° |
| 2026-05-07 18:46 | 46.29256 | -63.12452 | 128 ft | 83 kts | 189° |
| 2026-05-07 18:46 | 46.28902 | -63.12531 | 128 ft | 37 kts | 189° |
| 2026-05-07 18:47 | 46.28693 | -63.12578 | 126 ft | 15 kts | 188° |
| 2026-05-07 18:47 | 46.28648 | -63.12684 | 127 ft | 13 kts | 274° |
| 2026-05-07 18:47 | 46.28657 | -63.12758 | 126 ft | 6 kts | 277° |
| 2026-05-07 18:47 | 46.28663 | -63.12834 | 126 ft | 9 kts | 276° |
| 2026-05-07 18:48 | 46.28659 | -63.12919 | 126 ft | 8 kts | 233° |
| 2026-05-07 18:48 | 46.28617 | -63.12959 | 127 ft | 7 kts | 248° |
| 2026-05-07 18:48 | 46.28621 | -63.13010 | 127 ft | 2 kts | 282° |
| 2026-05-07 18:48 | 46.28622 | -63.13017 | 127 ft | 0 kts | 279° |